createdAt,value
2022-11-26T00:01:47.964Z,1.52
2022-11-26T00:04:16.815Z,0.80
2022-11-26T00:06:46.736Z,0.88
2022-11-26T00:09:35.489Z,1.08
2022-11-26T00:12:16.257Z,0.80
2022-11-26T00:14:57.814Z,1.13
2022-11-26T00:17:38.484Z,1.33
2022-11-26T00:20:10.027Z,1.52
2022-11-26T00:22:52.431Z,6.78
2022-11-26T00:25:24.863Z,14.35
2022-11-26T00:27:56.985Z,0.70
2022-11-26T00:30:29.766Z,1.00
2022-11-26T00:32:59.329Z,1.25
2022-11-26T00:35:28.446Z,5.68
2022-11-26T00:38:00.289Z,1.58
2022-11-26T00:40:33.891Z,3.90
2022-11-26T00:43:37.042Z,3.65
2022-11-26T00:47:32.745Z,1.65
2022-11-26T00:53:56.877Z,1.60
2022-11-26T00:57:55.877Z,2.03
2022-11-26T01:00:58.750Z,4.00
2022-11-26T01:08:15.821Z,2.15
2022-11-26T01:14:27.564Z,2.28
2022-11-26T01:17:02.048Z,2.97
2022-11-26T01:24:18.160Z,4.47
2022-11-26T01:26:59.511Z,3.17
2022-11-26T01:29:55.067Z,5.57
2022-11-26T01:32:29.336Z,3.08
2022-11-26T01:34:59.491Z,2.35
2022-11-26T01:37:31.963Z,3.80
2022-11-26T01:40:00.922Z,1.88
2022-11-26T01:42:42.945Z,1.13
2022-11-26T01:45:18.381Z,5.07
2022-11-26T01:47:52.889Z,2.47
2022-11-26T01:50:43.925Z,2.35
2022-11-26T01:53:44.243Z,2.67
2022-11-26T01:56:37.356Z,1.63
2022-11-26T01:59:27.713Z,0.80
2022-11-26T02:02:03.385Z,4.53
2022-11-26T02:04:38.146Z,2.47
2022-11-26T02:07:08.534Z,5.55
2022-11-26T02:09:40.921Z,5.30
2022-11-26T02:12:10.278Z,9.95
2022-11-26T02:14:42.602Z,4.93
2022-11-26T02:17:27.720Z,4.22
2022-11-26T02:20:08.394Z,3.00
2022-11-26T02:22:46.488Z,2.60
2022-11-26T02:25:33.886Z,4.00
2022-11-26T02:31:05.106Z,1.70
2022-11-26T02:34:19.855Z,5.45
2022-11-26T02:36:58.313Z,9.25
2022-11-26T02:39:37.524Z,13.10
2022-11-26T02:42:33.982Z,11.05
2022-11-26T02:45:08.969Z,9.45
2022-11-26T02:48:36.170Z,5.97
2022-11-26T02:55:16.546Z,21.38
2022-11-26T02:57:50.661Z,10.30
2022-11-26T03:00:26.233Z,10.25
2022-11-26T03:03:14.994Z,10.75
2022-11-26T03:05:44.538Z,9.13
2022-11-26T03:08:16.609Z,3.20
2022-11-26T03:10:47.924Z,3.72
2022-11-26T03:13:17.729Z,2.25
2022-11-26T03:15:46.729Z,2.72
2022-11-26T03:18:16.263Z,4.00
2022-11-26T03:20:45.526Z,4.85
2022-11-26T03:23:15.877Z,5.65
2022-11-26T03:25:45.422Z,4.80
2022-11-26T03:28:14.335Z,2.58
2022-11-26T03:30:43.324Z,3.28
2022-11-26T03:33:12.495Z,5.70
2022-11-26T03:35:43.420Z,4.50
2022-11-26T03:38:12.893Z,3.15
2022-11-26T03:40:42.279Z,7.03
2022-11-26T03:43:11.073Z,7.18
2022-11-26T03:45:39.988Z,8.77
2022-11-26T03:48:08.882Z,8.48
2022-11-26T03:50:37.724Z,6.68
2022-11-26T03:53:06.521Z,15.25
2022-11-26T03:55:35.529Z,30.40
2022-11-26T03:58:04.382Z,12.95
2022-11-26T04:00:33.318Z,8.68
2022-11-26T04:03:02.125Z,16.25
2022-11-26T04:05:31.046Z,21.13
2022-11-26T04:07:59.861Z,17.50
2022-11-26T04:10:28.967Z,17.48
2022-11-26T04:13:08.247Z,9.68
2022-11-26T04:15:39.872Z,8.05
2022-11-26T04:18:08.944Z,43.58
2022-11-26T04:20:42.247Z,70.22
2022-11-26T04:23:11.637Z,47.55
2022-11-26T04:25:44.058Z,17.52
2022-11-26T04:28:14.375Z,13.57
2022-11-26T04:30:44.281Z,7.63
2022-11-26T04:33:27.800Z,5.45
2022-11-26T04:35:57.226Z,7.65
2022-11-26T04:38:26.347Z,8.77
2022-11-26T04:40:55.811Z,11.82
2022-11-26T04:43:24.959Z,10.55
2022-11-26T04:45:54.059Z,13.52
2022-11-26T04:48:23.315Z,12.30
2022-11-26T04:51:21.854Z,6.63
2022-11-26T04:54:15.497Z,7.47
2022-11-26T04:57:02.745Z,30.60
2022-11-26T04:59:31.812Z,16.45
2022-11-26T05:02:07.565Z,13.98
2022-11-26T05:04:40.162Z,13.63
2022-11-26T05:07:13.040Z,10.45
2022-11-26T05:09:43.725Z,31.73
2022-11-26T05:12:13.603Z,34.60
2022-11-26T05:14:44.057Z,52.40
2022-11-26T05:17:13.411Z,34.42
2022-11-26T05:19:44.506Z,25.83
2022-11-26T05:22:16.105Z,20.30
2022-11-26T05:24:58.944Z,10.90
2022-11-26T05:27:31.342Z,14.15
2022-11-26T05:30:00.997Z,12.02
2022-11-26T05:32:30.442Z,13.57
2022-11-26T05:35:00.913Z,9.40
2022-11-26T05:37:32.774Z,36.60
2022-11-26T05:40:01.691Z,24.55
2022-11-26T05:42:37.706Z,31.08
2022-11-26T05:45:07.908Z,48.97
2022-11-26T05:47:37.711Z,12.88
2022-11-26T05:50:09.434Z,15.02
2022-11-26T05:52:38.426Z,18.67
2022-11-26T05:55:08.036Z,13.85
2022-11-26T05:57:38.464Z,11.50
2022-11-26T06:00:08.627Z,8.45
2022-11-26T06:02:40.637Z,5.50
2022-11-26T06:05:10.306Z,6.65
2022-11-26T06:07:43.294Z,8.30
2022-11-26T06:10:14.755Z,10.30
2022-11-26T06:12:43.619Z,14.57
2022-11-26T06:15:12.656Z,13.50
2022-11-26T06:17:41.796Z,8.57
2022-11-26T06:20:11.201Z,7.90
2022-11-26T06:22:41.838Z,7.45
2022-11-26T06:25:14.259Z,8.35
2022-11-26T06:27:43.196Z,8.27
2022-11-26T06:30:13.089Z,8.38
2022-11-26T06:32:42.061Z,8.52
2022-11-26T06:35:11.706Z,9.27
2022-11-26T06:37:41.728Z,9.20
2022-11-26T06:40:18.906Z,12.07
2022-11-26T06:42:52.505Z,18.20
2022-11-26T06:45:22.722Z,14.90
2022-11-26T06:47:52.558Z,13.40
2022-11-26T06:50:23.672Z,13.27
2022-11-26T06:52:57.035Z,10.52
2022-11-26T06:55:26.148Z,11.13
2022-11-26T06:57:55.024Z,14.98
2022-11-26T07:00:25.241Z,10.57
2022-11-26T07:02:54.179Z,8.35
2022-11-26T07:05:23.014Z,10.55
2022-11-26T07:07:52.124Z,7.10
2022-11-26T07:10:21.191Z,8.88
2022-11-26T07:12:50.051Z,9.35
2022-11-26T07:15:19.332Z,11.48
2022-11-26T07:17:50.474Z,8.35
2022-11-26T07:20:25.880Z,5.97
2022-11-26T07:22:55.086Z,13.75
2022-11-26T07:25:25.544Z,29.85
2022-11-26T07:27:54.381Z,46.20
2022-11-26T07:30:23.514Z,53.33
2022-11-26T07:32:52.488Z,27.35
2022-11-26T07:35:21.388Z,15.55
2022-11-26T07:37:50.451Z,11.02
2022-11-26T07:40:20.403Z,9.20
2022-11-26T07:42:53.243Z,9.80
2022-11-26T07:45:26.140Z,33.75
2022-11-26T07:47:54.998Z,44.97
2022-11-26T07:50:23.816Z,41.25
2022-11-26T07:52:53.682Z,51.50
2022-11-26T07:55:22.754Z,48.47
2022-11-26T07:57:51.525Z,25.10
2022-11-26T08:00:21.040Z,17.58
2022-11-26T08:02:50.203Z,8.95
2022-11-26T08:05:19.049Z,6.15
2022-11-26T08:07:47.946Z,4.97
2022-11-26T08:10:20.102Z,9.68
2022-11-26T08:12:50.780Z,15.65
2022-11-26T08:15:21.072Z,7.85
2022-11-26T08:17:50.044Z,10.18
2022-11-26T08:20:18.790Z,7.20
2022-11-26T08:22:47.670Z,7.35
2022-11-26T08:25:16.518Z,5.80
2022-11-26T08:27:46.255Z,11.80
2022-11-26T08:30:17.629Z,12.80
2022-11-26T08:32:46.744Z,17.95
2022-11-26T08:35:15.753Z,13.38
2022-11-26T08:37:44.870Z,14.55
2022-11-26T08:40:14.952Z,19.85
2022-11-26T08:42:43.873Z,18.23
2022-11-26T08:45:13.057Z,17.83
2022-11-26T08:47:42.176Z,29.55
2022-11-26T08:50:11.593Z,24.15
2022-11-26T08:52:40.528Z,34.03
2022-11-26T08:55:09.847Z,31.05
2022-11-26T08:57:38.738Z,21.40
2022-11-26T09:00:08.642Z,12.70
2022-11-26T09:02:37.719Z,13.75
2022-11-26T09:05:07.069Z,9.93
2022-11-26T09:07:36.071Z,10.25
2022-11-26T09:10:05.286Z,7.88
2022-11-26T09:12:36.533Z,13.23
2022-11-26T09:15:05.688Z,9.05
2022-11-26T09:17:34.977Z,8.98
2022-11-26T09:20:04.141Z,11.35
2022-11-26T09:22:33.124Z,6.95
2022-11-26T09:25:02.872Z,6.57
2022-11-26T09:27:31.657Z,6.95
2022-11-26T09:30:00.494Z,10.07
2022-11-26T09:32:34.023Z,10.20
2022-11-26T09:35:03.353Z,9.38
2022-11-26T09:37:33.507Z,11.90
2022-11-26T09:40:02.485Z,5.63
2022-11-26T09:42:44.559Z,8.75
2022-11-26T09:45:27.383Z,5.10
2022-11-26T09:47:56.547Z,4.78
2022-11-26T09:50:36.153Z,5.00
2022-11-26T09:53:19.149Z,4.97
2022-11-26T09:55:56.129Z,4.18
2022-11-26T09:58:28.831Z,3.53
2022-11-26T10:01:00.115Z,3.92
2022-11-26T10:03:33.426Z,3.63
2022-11-26T10:06:10.713Z,3.72
2022-11-26T10:08:54.380Z,4.15
2022-11-26T10:11:23.164Z,2.42
2022-11-26T10:14:11.320Z,6.15
2022-11-26T10:16:48.930Z,6.78
2022-11-26T10:19:34.351Z,7.22
2022-11-26T10:22:13.647Z,8.50
2022-11-26T10:24:43.891Z,19.45
2022-11-26T10:27:17.418Z,15.07
2022-11-26T10:30:26.483Z,14.40
2022-11-26T10:33:16.780Z,12.52
2022-11-26T10:38:46.717Z,13.65
2022-11-26T10:41:16.915Z,9.30
2022-11-26T10:43:46.181Z,5.65
2022-11-26T10:46:35.750Z,6.07
2022-11-26T10:49:24.991Z,4.75
2022-11-26T10:52:08.760Z,6.43
2022-11-26T10:54:39.740Z,4.90
2022-11-26T10:57:11.838Z,5.68
2022-11-26T10:59:55.773Z,4.78
2022-11-26T11:02:43.271Z,4.28
2022-11-26T11:05:12.456Z,5.07
2022-11-26T11:07:46.087Z,3.80
2022-11-26T11:10:18.953Z,4.63
2022-11-26T11:12:51.940Z,4.90
2022-11-26T11:15:36.771Z,7.10
2022-11-26T11:18:22.773Z,4.07
2022-11-26T11:20:57.907Z,3.88
2022-11-26T11:23:52.268Z,5.60
2022-11-26T11:26:20.880Z,7.13
2022-11-26T11:28:55.794Z,7.53
2022-11-26T11:31:27.239Z,6.97
2022-11-26T11:34:39.259Z,5.60
2022-11-26T11:37:18.863Z,4.15
2022-11-26T11:40:05.778Z,3.45
2022-11-26T11:42:34.828Z,8.43
2022-11-26T11:45:06.993Z,17.45
2022-11-26T11:47:43.026Z,17.08
2022-11-26T11:50:45.573Z,18.13
2022-11-26T11:53:33.263Z,26.25
2022-11-26T11:56:21.869Z,25.17
2022-11-26T11:59:48.359Z,36.13
2022-11-26T12:03:00.463Z,43.45
2022-11-26T12:05:42.093Z,20.27
2022-11-26T12:08:27.234Z,22.23
2022-11-26T12:11:28.329Z,15.85
2022-11-26T12:14:05.450Z,10.82
2022-11-26T12:16:40.487Z,11.48
2022-11-26T12:19:19.426Z,8.85
2022-11-26T12:22:09.390Z,21.25
2022-11-26T12:24:54.139Z,19.70
2022-11-26T12:27:34.113Z,14.30
2022-11-26T12:30:16.309Z,24.42
2022-11-26T12:32:54.761Z,17.05
2022-11-26T12:35:40.582Z,10.95
2022-11-26T12:38:34.882Z,8.65
2022-11-26T12:41:09.082Z,15.18
2022-11-26T12:43:49.946Z,24.20
2022-11-26T12:46:26.626Z,31.75
2022-11-26T12:49:21.937Z,26.38
2022-11-26T12:51:57.556Z,15.85
2022-11-26T12:54:34.465Z,19.23
2022-11-26T12:57:22.043Z,16.15
2022-11-26T13:00:07.142Z,9.23
2022-11-26T13:02:39.061Z,8.23
2022-11-26T13:05:16.097Z,9.00
2022-11-26T13:08:26.508Z,18.43
2022-11-26T13:11:20.519Z,22.20
2022-11-26T13:14:16.217Z,15.18
2022-11-26T13:16:59.459Z,40.03
2022-11-26T13:19:37.728Z,41.28
2022-11-26T13:22:09.572Z,36.90
2022-11-26T13:25:09.675Z,19.08
2022-11-26T13:27:59.748Z,6.47
2022-11-26T13:31:05.619Z,6.60
2022-11-26T13:34:15.044Z,9.13
2022-11-26T13:37:05.005Z,14.38
2022-11-26T13:39:52.798Z,16.33
2022-11-26T13:42:30.846Z,13.45
2022-11-26T13:45:18.268Z,9.63
2022-11-26T13:50:25.518Z,4.50
2022-11-26T13:53:26.785Z,3.63
2022-11-26T13:56:03.039Z,3.13
2022-11-26T13:58:42.731Z,2.73
2022-11-26T14:01:31.925Z,8.15
2022-11-26T14:04:01.434Z,2.70
2022-11-26T14:06:31.049Z,3.22
2022-11-26T14:09:04.447Z,2.30
2022-11-26T14:11:42.129Z,4.53
2022-11-26T14:14:26.267Z,3.20
2022-11-26T14:17:14.931Z,6.43
2022-11-26T14:19:43.815Z,2.50
2022-11-26T14:22:12.515Z,2.85
2022-11-26T14:24:50.714Z,3.97
2022-11-26T14:27:23.187Z,2.90
2022-11-26T14:29:56.412Z,3.33
2022-11-26T14:32:28.100Z,5.53
2022-11-26T14:34:58.990Z,4.72
2022-11-26T14:37:32.471Z,3.50
2022-11-26T14:40:03.807Z,3.00
2022-11-26T14:42:32.694Z,3.10
2022-11-26T14:45:05.668Z,2.00
2022-11-26T14:47:35.089Z,3.22
2022-11-26T14:50:10.491Z,4.63
2022-11-26T14:52:42.864Z,4.47
2022-11-26T14:55:25.463Z,2.85
2022-11-26T14:58:09.362Z,4.30
2022-11-26T15:00:38.873Z,2.90
2022-11-26T15:03:40.575Z,5.88
2022-11-26T15:06:27.044Z,7.38
2022-11-26T15:09:27.094Z,13.13
2022-11-26T15:12:14.269Z,6.93
2022-11-26T15:14:54.726Z,6.07
2022-11-26T15:17:26.053Z,5.32
2022-11-26T15:19:57.855Z,8.00
2022-11-26T15:22:57.806Z,4.60
2022-11-26T15:25:29.995Z,4.78
2022-11-26T15:28:10.009Z,5.00
2022-11-26T15:30:40.184Z,5.97
2022-11-26T15:33:09.097Z,13.88
2022-11-26T15:35:38.356Z,14.05
2022-11-26T15:38:19.305Z,12.05
2022-11-26T15:40:53.219Z,13.20
2022-11-26T15:43:32.482Z,9.85
2022-11-26T15:46:13.578Z,11.18
2022-11-26T15:48:52.525Z,8.35
2022-11-26T15:51:43.371Z,8.80
2022-11-26T15:54:56.727Z,8.07
2022-11-26T15:57:43.357Z,7.88
2022-11-26T16:00:24.218Z,12.00
2022-11-26T16:02:53.148Z,13.75
2022-11-26T16:05:37.534Z,8.48
2022-11-26T16:08:31.255Z,7.72
2022-11-26T16:11:09.223Z,9.07
2022-11-26T16:13:38.232Z,12.00
2022-11-26T16:16:16.002Z,12.20
2022-11-26T16:19:05.198Z,7.07
2022-11-26T16:21:36.256Z,8.32
2022-11-26T16:24:07.981Z,7.03
2022-11-26T16:26:58.571Z,7.10
2022-11-26T16:29:29.242Z,11.70
2022-11-26T16:31:58.268Z,13.10
2022-11-26T16:34:28.529Z,10.93
2022-11-26T16:37:03.496Z,13.57
2022-11-26T16:39:39.099Z,11.45
2022-11-26T16:42:17.333Z,9.90
2022-11-26T16:44:49.642Z,7.03
2022-11-26T16:47:28.832Z,5.80
2022-11-26T16:49:58.597Z,4.60
2022-11-26T16:52:27.631Z,7.03
2022-11-26T16:54:56.954Z,4.40
2022-11-26T16:57:29.081Z,4.90
2022-11-26T17:00:04.891Z,5.03
2022-11-26T17:02:34.473Z,9.07
2022-11-26T17:05:05.696Z,4.93
2022-11-26T17:07:43.585Z,7.97
2022-11-26T17:10:16.327Z,5.05
2022-11-26T17:12:45.573Z,5.85
2022-11-26T17:15:14.842Z,7.70
2022-11-26T17:17:43.895Z,4.35
2022-11-26T17:20:16.946Z,5.07
2022-11-26T17:22:46.639Z,6.82
2022-11-26T17:25:16.212Z,4.28
2022-11-26T17:27:47.181Z,8.02
2022-11-26T17:30:19.071Z,7.43
2022-11-26T17:32:48.247Z,10.13
2022-11-26T17:35:17.523Z,6.45
2022-11-26T17:37:46.867Z,5.45
2022-11-26T17:40:21.821Z,5.65
2022-11-26T17:42:54.431Z,4.63
2022-11-26T17:45:23.958Z,3.60
2022-11-26T17:47:53.572Z,4.32
2022-11-26T17:50:26.010Z,3.67
2022-11-26T17:52:58.910Z,4.53
2022-11-26T17:55:37.375Z,8.32
2022-11-26T17:58:12.779Z,4.13
2022-11-26T18:00:44.183Z,8.93
2022-11-26T18:03:19.171Z,10.00
2022-11-26T18:05:48.552Z,7.40
2022-11-26T18:08:17.686Z,8.07
2022-11-26T18:10:48.993Z,5.15
2022-11-26T18:13:17.864Z,7.43
2022-11-26T18:15:46.762Z,4.97
2022-11-26T18:18:16.144Z,5.32
2022-11-26T18:20:45.459Z,6.07
2022-11-26T18:23:14.285Z,4.78
2022-11-26T18:25:47.826Z,5.88
2022-11-26T18:28:23.945Z,4.18
2022-11-26T18:31:00.626Z,4.55
2022-11-26T18:35:58.577Z,4.50
2022-11-26T18:38:30.130Z,4.43
2022-11-26T18:41:01.597Z,2.90
2022-11-26T18:43:36.401Z,3.38
2022-11-26T18:46:17.913Z,4.50
2022-11-26T18:48:53.332Z,6.78
2022-11-26T18:51:25.330Z,6.50
2022-11-26T18:53:55.877Z,4.55
2022-11-26T18:56:25.597Z,7.68
2022-11-26T18:58:55.937Z,7.78
2022-11-26T19:01:30.817Z,3.97
2022-11-26T19:04:00.855Z,4.38
2022-11-26T19:06:31.529Z,4.63
2022-11-26T19:09:16.526Z,3.55
2022-11-26T19:11:46.288Z,5.03
2022-11-26T19:14:24.069Z,3.30
2022-11-26T19:17:05.085Z,6.47
2022-11-26T19:19:46.635Z,3.15
2022-11-26T19:22:15.634Z,4.47
2022-11-26T19:24:44.757Z,3.10
2022-11-26T19:27:16.314Z,4.60
2022-11-26T19:29:45.317Z,6.25
2022-11-26T19:32:16.922Z,2.30
2022-11-26T19:34:46.004Z,4.97
2022-11-26T19:37:15.088Z,11.20
2022-11-26T19:39:44.273Z,4.80
2022-11-26T19:42:16.590Z,3.95
2022-11-26T19:48:41.830Z,3.65
2022-11-26T19:51:27.177Z,7.18
2022-11-26T19:53:58.741Z,4.18
2022-11-26T19:56:33.411Z,4.75
2022-11-26T19:59:05.528Z,2.45
2022-11-26T20:01:36.696Z,6.25
2022-11-26T20:04:09.018Z,5.65
2022-11-26T20:06:38.974Z,6.20
2022-11-26T20:09:09.796Z,4.82
2022-11-26T20:11:40.435Z,7.10
2022-11-26T20:14:11.358Z,3.03
2022-11-26T20:16:44.140Z,7.15
2022-11-26T20:19:14.139Z,6.47
2022-11-26T20:21:43.467Z,5.75
2022-11-26T20:24:19.130Z,4.70
2022-11-26T20:26:51.091Z,1.92
2022-11-26T20:29:20.376Z,3.65
2022-11-26T20:31:53.805Z,3.53
2022-11-26T20:34:26.887Z,1.58
2022-11-26T20:37:08.446Z,3.47
2022-11-26T20:39:40.447Z,2.63
2022-11-26T20:42:12.689Z,7.93
2022-11-26T20:44:42.012Z,4.32
2022-11-26T20:47:14.127Z,6.00
2022-11-26T20:49:50.406Z,3.47
2022-11-26T20:52:35.404Z,3.30
2022-11-26T20:55:05.867Z,5.43
2022-11-26T20:57:38.605Z,5.80
2022-11-26T21:00:09.396Z,3.45
2022-11-26T21:02:41.428Z,6.85
2022-11-26T21:05:10.715Z,5.53
2022-11-26T21:07:39.741Z,5.53
2022-11-26T21:10:16.682Z,6.95
2022-11-26T21:12:45.625Z,10.15
2022-11-26T21:15:18.096Z,6.93
2022-11-26T21:20:57.131Z,6.95
2022-11-26T21:23:27.554Z,5.15
2022-11-26T21:26:08.111Z,9.55
2022-11-26T21:28:39.718Z,5.80
2022-11-26T21:31:12.203Z,11.70
2022-11-26T21:34:09.683Z,5.78
2022-11-26T21:36:45.227Z,10.48
2022-11-26T21:39:19.765Z,10.23
2022-11-26T21:41:49.137Z,9.43
2022-11-26T21:44:21.216Z,12.95
2022-11-26T21:46:52.470Z,6.40
2022-11-26T21:49:24.269Z,8.60
2022-11-26T21:52:02.394Z,7.93
2022-11-26T21:55:09.112Z,11.30
2022-11-26T21:57:43.341Z,10.95
2022-11-26T22:00:38.738Z,6.57
2022-11-26T22:03:43.375Z,14.82
2022-11-26T22:06:05.400Z,9.82
2022-11-26T22:08:35.026Z,12.57
2022-11-26T22:11:21.271Z,8.73
2022-11-26T22:13:51.056Z,17.67
2022-11-26T22:16:23.490Z,17.02
2022-11-26T22:18:53.631Z,11.13
2022-11-26T22:21:30.035Z,19.17
2022-11-26T22:24:00.142Z,14.48
2022-11-26T22:26:30.689Z,15.35
2022-11-26T22:29:00.531Z,13.30
2022-11-26T22:31:32.691Z,12.73
2022-11-26T22:34:14.538Z,18.58
2022-11-26T22:36:44.735Z,20.05
2022-11-26T22:39:18.394Z,17.38
2022-11-26T22:41:49.629Z,13.70
2022-11-26T22:44:33.317Z,14.43
2022-11-26T22:47:08.988Z,11.88
2022-11-26T22:49:41.521Z,11.75
2022-11-26T22:52:11.449Z,9.35
2022-11-26T22:54:40.637Z,13.48
2022-11-26T22:57:10.009Z,9.13
2022-11-26T22:59:42.635Z,16.73
2022-11-26T23:02:11.733Z,14.63
2022-11-26T23:04:40.633Z,11.88
2022-11-26T23:07:09.513Z,13.60
2022-11-26T23:10:12.668Z,7.80
2022-11-26T23:14:23.583Z,11.05
2022-11-26T23:16:28.501Z,14.35
2022-11-26T23:19:45.189Z,14.70
2022-11-26T23:22:17.250Z,11.85
2022-11-26T23:24:46.354Z,15.90
2022-11-26T23:27:23.874Z,14.10
2022-11-26T23:29:53.167Z,13.52
2022-11-26T23:32:22.298Z,18.67
2022-11-26T23:39:51.436Z,12.65
2022-11-26T23:42:23.847Z,13.18
2022-11-26T23:44:53.145Z,14.48
2022-11-26T23:47:22.346Z,16.45
2022-11-26T23:49:51.480Z,17.23
2022-11-26T23:52:42.762Z,12.93
2022-11-26T23:58:52.726Z,12.35
